createdAt,value
2019-03-30T00:00:03.347Z,8.10
2019-03-30T00:02:31.732Z,8.00
2019-03-30T00:05:00.260Z,8.00
2019-03-30T00:07:28.668Z,7.90
2019-03-30T00:09:57.040Z,8.00
2019-03-30T00:12:25.426Z,8.00
2019-03-30T00:14:53.800Z,8.10
2019-03-30T00:17:22.182Z,8.20
2019-03-30T00:19:50.567Z,8.30
2019-03-30T00:22:18.943Z,8.30
2019-03-30T00:24:47.332Z,8.40
2019-03-30T00:27:15.707Z,8.40
2019-03-30T00:29:44.092Z,8.40
2019-03-30T00:32:12.548Z,8.30
2019-03-30T00:34:40.928Z,8.30
2019-03-30T00:37:09.312Z,8.20
2019-03-30T00:39:37.763Z,8.10
2019-03-30T00:42:06.144Z,8.00
2019-03-30T00:44:34.539Z,7.90
2019-03-30T00:47:02.916Z,7.90
2019-03-30T00:49:31.287Z,7.90
2019-03-30T00:51:59.670Z,7.90
2019-03-30T00:54:28.047Z,8.00
2019-03-30T00:56:56.471Z,8.00
2019-03-30T00:59:24.919Z,8.00
2019-03-30T01:01:53.379Z,7.90
2019-03-30T01:04:21.760Z,7.80
2019-03-30T01:06:50.139Z,7.80
2019-03-30T01:09:18.511Z,7.70
2019-03-30T01:11:47.226Z,7.50
2019-03-30T01:14:15.653Z,7.50
2019-03-30T01:16:44.031Z,7.40
2019-03-30T01:19:12.411Z,7.40
2019-03-30T01:21:40.804Z,7.40
2019-03-30T01:24:09.493Z,7.40
2019-03-30T01:26:37.872Z,7.40
2019-03-30T01:29:06.331Z,7.40
2019-03-30T01:31:34.711Z,7.40
2019-03-30T01:34:03.096Z,7.40
2019-03-30T01:36:31.476Z,7.40
2019-03-30T01:38:59.868Z,7.50
2019-03-30T01:41:28.240Z,7.50
2019-03-30T01:43:56.616Z,7.50
2019-03-30T01:46:25.012Z,7.60
2019-03-30T01:48:53.390Z,7.50
2019-03-30T01:51:21.768Z,7.30
2019-03-30T01:53:50.152Z,7.30
2019-03-30T01:56:18.536Z,7.40
2019-03-30T01:58:47.203Z,7.40
2019-03-30T02:01:15.671Z,7.40
2019-03-30T02:03:44.059Z,7.40
2019-03-30T02:06:12.432Z,7.40
2019-03-30T02:08:40.823Z,7.40
2019-03-30T02:11:09.191Z,7.40
2019-03-30T02:13:37.583Z,7.40
2019-03-30T02:16:05.973Z,7.40
2019-03-30T02:18:34.483Z,7.40
2019-03-30T02:21:02.868Z,7.40
2019-03-30T02:23:31.243Z,7.40
2019-03-30T02:25:59.648Z,7.40
2019-03-30T02:28:28.107Z,7.40
2019-03-30T02:30:56.484Z,7.40
2019-03-30T02:33:24.878Z,7.40
2019-03-30T02:35:53.257Z,7.30
2019-03-30T02:38:21.648Z,7.30
2019-03-30T02:40:50.023Z,7.20
2019-03-30T02:43:18.407Z,7.20
2019-03-30T02:45:46.779Z,7.00
2019-03-30T02:48:15.167Z,7.00
2019-03-30T02:50:49.836Z,7.00
2019-03-30T02:53:13.657Z,7.00
2019-03-30T02:55:42.046Z,7.00
2019-03-30T02:58:10.424Z,7.10
2019-03-30T03:00:38.823Z,7.00
2019-03-30T03:03:07.184Z,7.10
2019-03-30T03:05:35.571Z,7.10
2019-03-30T03:08:03.962Z,7.10
2019-03-30T03:10:32.341Z,7.10
2019-03-30T03:13:00.716Z,7.00
2019-03-30T03:15:29.115Z,7.10
2019-03-30T03:17:57.492Z,7.20
2019-03-30T03:20:25.876Z,7.20
2019-03-30T03:22:54.256Z,7.10
2019-03-30T03:25:22.649Z,7.10
2019-03-30T03:27:51.032Z,7.10
2019-03-30T03:30:19.654Z,7.00
2019-03-30T03:32:48.059Z,7.00
2019-03-30T03:35:16.429Z,7.00
2019-03-30T03:37:46.455Z,7.10
2019-03-30T03:40:15.159Z,7.20
2019-03-30T03:42:43.545Z,7.20
2019-03-30T03:45:12.557Z,7.20
2019-03-30T03:47:40.940Z,7.20
2019-03-30T03:50:12.388Z,7.20
2019-03-30T03:52:41.125Z,7.20
2019-03-30T03:55:09.574Z,7.30
2019-03-30T03:57:40.659Z,7.30
2019-03-30T04:00:10.675Z,7.30
2019-03-30T04:02:39.982Z,7.30
2019-03-30T04:05:08.919Z,7.40
2019-03-30T04:07:42.352Z,7.40
2019-03-30T04:10:12.337Z,7.40
2019-03-30T04:12:43.338Z,7.50
2019-03-30T04:15:14.803Z,7.50
2019-03-30T04:17:43.255Z,7.40
2019-03-30T04:20:14.541Z,7.40
2019-03-30T04:22:42.919Z,7.40
2019-03-30T04:25:11.370Z,7.40
2019-03-30T04:27:39.758Z,7.30
2019-03-30T04:30:08.275Z,7.20
2019-03-30T04:32:36.674Z,7.20
2019-03-30T04:35:06.229Z,7.10
2019-03-30T04:37:34.709Z,7.10
2019-03-30T04:40:03.740Z,7.10
2019-03-30T04:42:32.130Z,7.00
2019-03-30T04:45:00.512Z,7.00
2019-03-30T04:47:28.893Z,6.90
2019-03-30T04:49:57.284Z,6.90
2019-03-30T04:52:26.143Z,6.80
2019-03-30T04:54:54.520Z,6.80
2019-03-30T04:57:22.923Z,6.70
2019-03-30T04:59:51.305Z,6.70
2019-03-30T05:02:19.684Z,6.60
2019-03-30T05:04:48.076Z,6.60
2019-03-30T05:07:16.455Z,6.60
2019-03-30T05:09:44.865Z,6.60
2019-03-30T05:12:13.508Z,6.50
2019-03-30T05:14:41.895Z,6.60
2019-03-30T05:17:10.293Z,6.50
2019-03-30T05:19:38.681Z,6.50
2019-03-30T05:22:12.894Z,6.40
2019-03-30T05:24:37.160Z,6.40
2019-03-30T05:27:05.531Z,6.40
2019-03-30T05:29:33.924Z,6.30
2019-03-30T05:32:02.311Z,6.20
2019-03-30T05:34:30.691Z,6.20
2019-03-30T05:36:59.067Z,6.20
2019-03-30T05:39:27.443Z,6.30
2019-03-30T05:41:55.833Z,6.40
2019-03-30T05:44:24.199Z,6.50
2019-03-30T05:46:52.579Z,6.60
2019-03-30T05:49:20.964Z,6.60
2019-03-30T05:51:49.352Z,6.60
2019-03-30T05:54:17.739Z,6.60
2019-03-30T05:56:46.111Z,6.70
2019-03-30T05:59:14.504Z,6.70
2019-03-30T06:01:42.886Z,6.90
2019-03-30T06:04:11.260Z,7.10
2019-03-30T06:06:39.654Z,7.40
2019-03-30T06:09:08.026Z,7.70
2019-03-30T06:11:36.415Z,7.80
2019-03-30T06:14:04.937Z,7.90
2019-03-30T06:16:33.310Z,8.00
2019-03-30T06:19:01.691Z,8.20
2019-03-30T06:21:30.077Z,8.30
2019-03-30T06:23:58.473Z,8.40
2019-03-30T06:26:26.851Z,8.60
2019-03-30T06:28:55.244Z,8.70
2019-03-30T06:31:23.617Z,8.80
2019-03-30T06:33:52.105Z,8.90
2019-03-30T06:36:20.463Z,9.00
2019-03-30T06:38:48.835Z,9.10
2019-03-30T06:41:17.226Z,9.10
2019-03-30T06:43:45.600Z,9.30
2019-03-30T06:46:13.975Z,9.50
2019-03-30T06:48:42.363Z,9.60
2019-03-30T06:51:10.733Z,9.70
2019-03-30T06:53:39.103Z,9.80
2019-03-30T06:56:07.492Z,9.90
2019-03-30T06:58:35.867Z,10.00
2019-03-30T07:01:04.612Z,10.20
2019-03-30T07:03:33.328Z,10.30
2019-03-30T07:06:02.435Z,10.40
2019-03-30T07:08:33.167Z,10.60
2019-03-30T07:11:02.816Z,10.70
2019-03-30T07:13:34.148Z,10.90
2019-03-30T07:16:04.096Z,11.10
2019-03-30T07:18:34.015Z,11.20
2019-03-30T07:21:02.403Z,11.30
2019-03-30T07:23:30.780Z,11.70
2019-03-30T07:25:59.167Z,12.90
2019-03-30T07:28:27.549Z,14.00
2019-03-30T07:30:55.941Z,14.70
2019-03-30T07:33:24.332Z,15.30
2019-03-30T07:35:52.710Z,16.00
2019-03-30T07:38:21.101Z,16.70
2019-03-30T07:40:49.475Z,17.40
2019-03-30T07:43:17.857Z,18.00
2019-03-30T07:45:46.252Z,19.10
2019-03-30T07:48:14.635Z,20.10
2019-03-30T07:50:43.037Z,21.10
2019-03-30T07:53:25.321Z,21.60
2019-03-30T07:55:41.508Z,21.80
2019-03-30T07:58:09.943Z,22.10
2019-03-30T08:00:38.567Z,22.20
2019-03-30T08:03:06.948Z,22.30
2019-03-30T08:05:35.340Z,22.00
2019-03-30T08:08:03.808Z,22.10
2019-03-30T08:10:32.174Z,22.10
2019-03-30T08:13:00.569Z,22.10
2019-03-30T08:15:28.940Z,22.00
2019-03-30T08:17:57.331Z,22.30
2019-03-30T08:20:25.713Z,22.60
2019-03-30T08:22:54.092Z,22.40
2019-03-30T08:25:22.480Z,22.30
2019-03-30T08:27:50.856Z,22.10
2019-03-30T08:30:19.248Z,22.20
2019-03-30T08:32:47.639Z,22.20
2019-03-30T08:35:16.027Z,22.40
2019-03-30T08:37:44.405Z,22.60
2019-03-30T08:40:12.863Z,22.80
2019-03-30T08:42:41.243Z,22.70
2019-03-30T08:45:09.768Z,22.60
2019-03-30T08:47:38.148Z,22.60
2019-03-30T08:50:08.134Z,23.00
2019-03-30T08:52:36.523Z,23.30
2019-03-30T08:55:07.145Z,23.50
2019-03-30T08:57:35.521Z,23.50
2019-03-30T09:00:05.152Z,23.80
2019-03-30T09:02:33.531Z,23.40
2019-03-30T09:05:01.911Z,23.30
2019-03-30T09:07:30.291Z,23.50
2019-03-30T09:09:58.679Z,23.40
2019-03-30T09:12:27.054Z,23.60
2019-03-30T09:14:55.439Z,23.70
2019-03-30T09:17:23.811Z,23.80
2019-03-30T09:19:52.278Z,24.00
2019-03-30T09:22:20.656Z,24.10
2019-03-30T09:24:49.050Z,23.80
2019-03-30T09:27:17.428Z,23.90
2019-03-30T09:29:45.803Z,24.30
2019-03-30T09:32:15.145Z,24.70
2019-03-30T09:34:43.651Z,24.80
2019-03-30T09:37:12.040Z,24.80
2019-03-30T09:39:40.427Z,25.10
2019-03-30T09:42:08.807Z,25.30
2019-03-30T09:44:37.183Z,25.00
2019-03-30T09:47:05.576Z,24.70
2019-03-30T09:49:33.956Z,24.90
2019-03-30T09:52:02.335Z,25.20
2019-03-30T09:54:30.736Z,25.40
2019-03-30T09:56:59.119Z,25.70
2019-03-30T09:59:27.499Z,25.60
2019-03-30T10:01:55.884Z,25.30
2019-03-30T10:04:24.272Z,25.00
2019-03-30T10:06:52.647Z,25.00
2019-03-30T10:09:21.041Z,25.00
2019-03-30T10:11:49.419Z,25.80
2019-03-30T10:14:17.800Z,26.00
2019-03-30T10:16:48.725Z,26.00
2019-03-30T10:19:16.292Z,26.10
2019-03-30T10:21:44.674Z,25.70
2019-03-30T10:24:13.063Z,25.70
2019-03-30T10:26:41.435Z,25.60
2019-03-30T10:29:09.813Z,25.60
2019-03-30T10:31:38.196Z,25.60
2019-03-30T10:34:06.576Z,25.60
2019-03-30T10:36:34.964Z,26.00
2019-03-30T10:39:04.107Z,26.10
2019-03-30T10:41:32.492Z,26.40
2019-03-30T10:44:00.879Z,25.90
2019-03-30T10:46:29.260Z,26.00
2019-03-30T10:48:57.645Z,26.10
2019-03-30T10:51:26.103Z,26.20
2019-03-30T10:53:54.479Z,26.60
2019-03-30T10:56:22.862Z,26.90
2019-03-30T10:58:51.251Z,26.80
2019-03-30T11:01:19.635Z,27.00
2019-03-30T11:03:48.034Z,27.30
2019-03-30T11:06:16.447Z,27.20
2019-03-30T11:08:44.867Z,25.80
2019-03-30T11:11:13.248Z,25.70
2019-03-30T11:13:41.621Z,26.50
2019-03-30T11:16:09.995Z,27.00
2019-03-30T11:18:38.395Z,27.60
2019-03-30T11:21:06.855Z,27.70
2019-03-30T11:23:35.236Z,26.90
2019-03-30T11:26:03.683Z,27.00
2019-03-30T11:28:32.075Z,27.50
2019-03-30T11:31:00.451Z,27.70
2019-03-30T11:33:28.831Z,28.00
2019-03-30T11:35:57.223Z,28.00
2019-03-30T11:38:25.600Z,27.80
2019-03-30T11:40:53.988Z,27.80
2019-03-30T11:43:22.375Z,27.90
2019-03-30T11:45:50.752Z,28.40
2019-03-30T11:48:19.127Z,28.80
2019-03-30T11:50:47.523Z,28.30
2019-03-30T11:53:15.915Z,28.30
2019-03-30T11:55:44.296Z,28.40
2019-03-30T11:58:12.671Z,28.40
2019-03-30T12:00:41.060Z,28.40
2019-03-30T12:03:09.435Z,28.70
2019-03-30T12:05:37.819Z,28.80
2019-03-30T12:08:06.212Z,28.50
2019-03-30T12:10:34.602Z,28.30
2019-03-30T12:13:02.975Z,28.40
2019-03-30T12:15:31.359Z,28.10
2019-03-30T12:17:59.843Z,26.80
2019-03-30T12:20:28.220Z,26.70
2019-03-30T12:22:56.599Z,26.70
2019-03-30T12:25:35.486Z,26.60
2019-03-30T12:27:55.080Z,26.60
2019-03-30T12:30:23.468Z,27.10
2019-03-30T12:32:51.854Z,27.60
2019-03-30T12:35:20.310Z,28.20
2019-03-30T12:37:48.710Z,27.60
2019-03-30T12:40:17.744Z,27.00
2019-03-30T12:42:46.130Z,26.50
2019-03-30T12:45:14.747Z,27.70
2019-03-30T12:47:43.119Z,27.80
2019-03-30T12:50:11.952Z,27.90
2019-03-30T12:52:40.328Z,28.10
2019-03-30T12:55:08.856Z,28.50
2019-03-30T12:57:37.247Z,28.50
2019-03-30T13:00:08.916Z,28.70
2019-03-30T13:02:37.302Z,28.40
2019-03-30T13:05:07.616Z,28.30
2019-03-30T13:07:36.185Z,28.60
2019-03-30T13:10:06.907Z,28.70
2019-03-30T13:12:35.310Z,28.50
2019-03-30T13:15:04.955Z,28.90
2019-03-30T13:17:33.335Z,28.80
2019-03-30T13:20:01.726Z,29.00
2019-03-30T13:22:30.107Z,29.40
2019-03-30T13:24:58.489Z,28.90
2019-03-30T13:27:26.883Z,28.30
2019-03-30T13:29:55.258Z,27.60
2019-03-30T13:32:23.643Z,27.80
2019-03-30T13:34:52.020Z,27.90
2019-03-30T13:37:20.856Z,28.00
2019-03-30T13:39:49.231Z,28.40
2019-03-30T13:42:17.691Z,28.70
2019-03-30T13:44:46.074Z,28.50
2019-03-30T13:47:14.470Z,28.00
2019-03-30T13:49:42.844Z,27.90
2019-03-30T13:52:11.310Z,27.90
2019-03-30T13:54:39.680Z,28.10
2019-03-30T13:57:08.068Z,28.00
2019-03-30T13:59:36.445Z,27.70
2019-03-30T14:02:04.826Z,27.40
2019-03-30T14:04:33.219Z,27.40
2019-03-30T14:07:01.596Z,27.60
2019-03-30T14:09:29.973Z,27.10
2019-03-30T14:11:58.372Z,27.40
2019-03-30T14:14:26.819Z,27.60
2019-03-30T14:16:55.207Z,27.40
2019-03-30T14:19:23.584Z,27.10
2019-03-30T14:21:51.973Z,27.30
2019-03-30T14:24:20.354Z,27.60
2019-03-30T14:26:48.731Z,27.40
2019-03-30T14:29:17.130Z,27.00
2019-03-30T14:31:46.191Z,26.90
2019-03-30T14:34:14.575Z,26.90
2019-03-30T14:36:42.943Z,27.20
2019-03-30T14:39:12.239Z,27.40
2019-03-30T14:41:40.626Z,27.50
2019-03-30T14:44:09.019Z,27.50
2019-03-30T14:46:37.399Z,27.30
2019-03-30T14:49:05.789Z,27.20
2019-03-30T14:51:34.164Z,27.20
2019-03-30T14:54:02.543Z,27.20
2019-03-30T14:56:44.522Z,27.00
2019-03-30T14:59:09.989Z,26.90
2019-03-30T15:01:31.159Z,26.80
2019-03-30T15:03:59.615Z,26.50
2019-03-30T15:06:27.995Z,26.00
2019-03-30T15:08:56.387Z,26.20
2019-03-30T15:11:24.779Z,26.50
2019-03-30T15:13:53.177Z,26.70
2019-03-30T15:16:21.556Z,26.40
2019-03-30T15:18:49.935Z,26.00
2019-03-30T15:21:18.332Z,25.40
2019-03-30T15:23:46.712Z,25.40
2019-03-30T15:26:15.103Z,25.20
2019-03-30T15:28:43.530Z,25.40
2019-03-30T15:31:11.900Z,25.30
2019-03-30T15:33:40.275Z,24.80
2019-03-30T15:36:08.672Z,24.80
2019-03-30T15:38:37.055Z,25.00
2019-03-30T15:41:05.448Z,25.00
2019-03-30T15:43:38.480Z,24.90
2019-03-30T15:46:03.946Z,25.00
2019-03-30T15:48:32.328Z,25.00
2019-03-30T15:51:00.718Z,24.90
2019-03-30T15:53:29.108Z,24.80
2019-03-30T15:55:57.502Z,25.00
2019-03-30T15:58:25.884Z,25.00
2019-03-30T16:00:54.260Z,25.30
2019-03-30T16:03:22.652Z,25.20
2019-03-30T16:05:51.032Z,24.80
2019-03-30T16:08:19.419Z,24.60
2019-03-30T16:10:47.803Z,24.30
2019-03-30T16:13:16.257Z,24.20
2019-03-30T16:15:44.829Z,23.90
2019-03-30T16:18:13.391Z,23.70
2019-03-30T16:20:41.760Z,23.60
2019-03-30T16:23:10.149Z,23.70
2019-03-30T16:25:38.536Z,23.80
2019-03-30T16:28:06.915Z,23.70
2019-03-30T16:30:35.300Z,23.60
2019-03-30T16:33:03.747Z,23.50
2019-03-30T16:35:32.131Z,23.30
2019-03-30T16:38:00.511Z,22.70
2019-03-30T16:40:28.903Z,22.30
2019-03-30T16:42:57.302Z,21.70
2019-03-30T16:45:25.679Z,21.10
2019-03-30T16:47:54.065Z,20.50
2019-03-30T16:50:22.456Z,20.20
2019-03-30T16:52:50.831Z,19.90
2019-03-30T16:55:19.209Z,19.50
2019-03-30T16:57:47.599Z,19.40
2019-03-30T17:00:16.320Z,19.30
2019-03-30T17:02:44.719Z,19.50
2019-03-30T17:05:13.452Z,19.50
2019-03-30T17:07:41.832Z,19.40
2019-03-30T17:10:10.201Z,19.50
2019-03-30T17:12:38.592Z,19.50
2019-03-30T17:15:07.609Z,19.40
2019-03-30T17:17:36.003Z,19.00
2019-03-30T17:20:08.355Z,18.70
2019-03-30T17:22:36.741Z,18.60
2019-03-30T17:25:06.868Z,18.60
2019-03-30T17:27:36.189Z,18.60
2019-03-30T17:30:07.304Z,18.70
2019-03-30T17:32:35.773Z,18.70
2019-03-30T17:35:05.888Z,18.70
2019-03-30T17:37:34.276Z,18.60
2019-03-30T17:40:02.840Z,18.50
2019-03-30T17:42:31.216Z,18.20
2019-03-30T17:44:59.599Z,17.90
2019-03-30T17:47:27.996Z,17.50
2019-03-30T17:49:56.372Z,17.10
2019-03-30T17:52:24.755Z,16.80
2019-03-30T17:54:53.139Z,16.50
2019-03-30T17:57:21.532Z,16.20
2019-03-30T17:59:49.911Z,16.00
2019-03-30T18:02:18.293Z,15.70
2019-03-30T18:04:46.688Z,15.50
2019-03-30T18:07:15.075Z,15.30
2019-03-30T18:09:43.464Z,15.10
2019-03-30T18:12:11.857Z,14.80
2019-03-30T18:14:40.239Z,14.60
2019-03-30T18:17:08.623Z,14.30
2019-03-30T18:19:37.016Z,14.00
2019-03-30T18:22:05.402Z,13.80
2019-03-30T18:24:33.787Z,13.60
2019-03-30T18:27:02.179Z,13.50
2019-03-30T18:29:30.579Z,13.30
2019-03-30T18:31:58.964Z,13.10
2019-03-30T18:34:27.979Z,13.00
2019-03-30T18:36:56.807Z,12.80
2019-03-30T18:39:25.338Z,12.70
2019-03-30T18:41:53.724Z,12.60
2019-03-30T18:44:22.208Z,12.70
2019-03-30T18:46:50.607Z,12.80
2019-03-30T18:49:18.995Z,12.80
2019-03-30T18:51:47.660Z,12.80
2019-03-30T18:54:16.596Z,12.70
2019-03-30T18:56:44.971Z,12.50
2019-03-30T18:59:13.352Z,12.40
2019-03-30T19:01:41.756Z,12.40
2019-03-30T19:04:10.157Z,12.30
2019-03-30T19:06:38.555Z,12.30
2019-03-30T19:09:07.421Z,12.30
2019-03-30T19:11:35.811Z,12.30
2019-03-30T19:14:04.270Z,12.30
2019-03-30T19:16:32.667Z,12.40
2019-03-30T19:19:01.134Z,12.50
2019-03-30T19:21:29.513Z,12.40
2019-03-30T19:23:57.918Z,12.20
2019-03-30T19:26:26.296Z,12.20
2019-03-30T19:28:56.659Z,12.10
2019-03-30T19:31:24.813Z,12.00
2019-03-30T19:33:53.204Z,11.90
2019-03-30T19:36:21.588Z,11.90
2019-03-30T19:38:50.000Z,11.90
2019-03-30T19:41:18.384Z,11.90
2019-03-30T19:43:46.803Z,11.90
2019-03-30T19:46:15.239Z,11.80
2019-03-30T19:48:43.633Z,11.60
2019-03-30T19:51:12.017Z,11.40
2019-03-30T19:53:40.658Z,11.30
2019-03-30T19:56:09.046Z,11.30
2019-03-30T19:58:37.427Z,11.10
2019-03-30T20:01:05.884Z,11.10
2019-03-30T20:03:34.282Z,11.10
2019-03-30T20:06:02.674Z,11.00
2019-03-30T20:08:31.072Z,11.10
2019-03-30T20:10:59.468Z,10.90
2019-03-30T20:13:27.853Z,10.80
2019-03-30T20:15:56.247Z,10.70
2019-03-30T20:18:24.631Z,10.70
2019-03-30T20:20:53.348Z,10.60
2019-03-30T20:23:21.754Z,10.60
2019-03-30T20:25:50.144Z,10.50
2019-03-30T20:28:18.535Z,10.20
2019-03-30T20:30:46.916Z,10.00
2019-03-30T20:33:15.322Z,10.00
2019-03-30T20:35:43.709Z,10.00
2019-03-30T20:38:12.097Z,10.00
2019-03-30T20:40:40.494Z,10.00
2019-03-30T20:43:08.876Z,10.00
2019-03-30T20:45:37.260Z,10.00
2019-03-30T20:48:05.660Z,10.10
2019-03-30T20:50:34.059Z,10.00
2019-03-30T20:53:02.448Z,9.90
2019-03-30T20:55:33.766Z,9.80
2019-03-30T20:58:00.932Z,9.70
2019-03-30T21:00:29.561Z,9.70
2019-03-30T21:02:57.940Z,9.70
2019-03-30T21:05:26.326Z,9.70
2019-03-30T21:07:54.712Z,9.70
2019-03-30T21:10:23.087Z,9.60
2019-03-30T21:12:51.493Z,9.50
2019-03-30T21:15:19.867Z,9.50
2019-03-30T21:17:48.248Z,9.50
2019-03-30T21:20:16.639Z,9.50
2019-03-30T21:22:45.015Z,9.40
2019-03-30T21:25:13.411Z,9.20
2019-03-30T21:27:41.792Z,9.00
2019-03-30T21:30:10.816Z,9.10
2019-03-30T21:32:39.214Z,9.10
2019-03-30T21:35:08.149Z,8.90
2019-03-30T21:37:36.524Z,8.80
2019-03-30T21:40:06.639Z,8.80
2019-03-30T21:42:35.037Z,8.70
2019-03-30T21:45:04.075Z,8.60
2019-03-30T21:47:32.467Z,8.60
2019-03-30T21:50:00.863Z,8.50
2019-03-30T21:52:29.235Z,8.40
2019-03-30T21:55:17.037Z,8.20
2019-03-30T21:57:45.423Z,8.10
2019-03-30T22:00:16.880Z,7.90
2019-03-30T22:02:45.259Z,7.90
2019-03-30T22:05:13.715Z,8.10
2019-03-30T22:07:42.332Z,8.10
2019-03-30T22:10:13.792Z,8.20
2019-03-30T22:13:01.530Z,8.20
2019-03-30T22:15:30.244Z,8.20
2019-03-30T22:17:58.630Z,8.30
2019-03-30T22:20:27.020Z,8.30
2019-03-30T22:22:55.418Z,8.40
2019-03-30T22:25:23.792Z,8.40
2019-03-30T22:27:52.203Z,8.50
2019-03-30T22:30:25.153Z,8.40
2019-03-30T22:32:50.711Z,8.20
2019-03-30T22:35:19.075Z,8.00
2019-03-30T22:37:47.456Z,7.70
2019-03-30T22:40:15.846Z,7.50
2019-03-30T22:42:44.224Z,7.30
2019-03-30T22:45:12.691Z,7.60
2019-03-30T22:47:41.138Z,7.80
2019-03-30T22:50:10.167Z,7.90
2019-03-30T22:52:38.565Z,8.00
2019-03-30T22:55:07.487Z,7.90
2019-03-30T22:57:35.884Z,7.80
2019-03-30T23:00:10.869Z,7.90
2019-03-30T23:02:39.252Z,8.10
2019-03-30T23:05:07.777Z,8.20
2019-03-30T23:07:36.164Z,8.10
2019-03-30T23:10:06.695Z,7.80
2019-03-30T23:12:35.086Z,7.60
2019-03-30T23:15:03.712Z,7.40
2019-03-30T23:17:32.107Z,7.40
2019-03-30T23:20:00.504Z,7.30
2019-03-30T23:22:28.880Z,7.30
2019-03-30T23:24:57.279Z,7.50
2019-03-30T23:27:25.648Z,7.50
2019-03-30T23:29:54.029Z,7.50
2019-03-30T23:32:22.415Z,7.50
2019-03-30T23:34:50.792Z,7.50
2019-03-30T23:37:19.176Z,7.40
2019-03-30T23:39:47.571Z,7.30
2019-03-30T23:42:15.952Z,7.30
2019-03-30T23:44:44.343Z,7.30
2019-03-30T23:47:12.731Z,7.30
2019-03-30T23:49:48.492Z,7.20
2019-03-30T23:52:16.880Z,7.30
2019-03-30T23:54:45.262Z,7.30
2019-03-30T23:57:13.648Z,7.30
2019-03-30T23:59:42.047Z,7.50
